Portada
METAR-TAF:

METAR-TAF

Aeropuertos :

Council Bluffs, Iowa, Estados Unidos

latitud: 41-16N, longitud: 095-46W, altitud: 382 m

Observación

El informe se hizo hace 22 minutos, a las 07:55 UTC
Viento 5 kt del este-sureste
Temperatura 15°C
Humedad 88%
Presión 1023 hPa
Visibilidad: 16.1 km
Cielo cubierto a una altura de 5500 ft

METAR: KCBF 310755Z AUTO 12005KT 10SM OVC055 15/13 A3021 RMK AO2

Hora: 03:17 (08:17 UTC)


TAF: falta

Observaciones y pronósticos meteorológicos de más de 4000 aeropuertos (mensajes METAR y TAF).

Los puntos amarillos y rojos representan las estaciones disponibles.

Ponga el ratón en el punto deseado para ver el nombre de la estación.

Haga clic para ver las observaciones y los pronósticos meteorológicos.

Para cambiar el mapa : haga clic en los botones verdes con una cruz de color negro para hacer un zoom, en el botón verde con un guión para alejar o en las flechas verdes para mapas adyacentes.


METAR-TAF: